sensor_id;sensor_type;location;lat;lon;timestamp;P1;durP1;ratioP1;P2;durP2;ratioP2
42296;SDS011;28985;47.456;19.016;2022-08-30T19:02:25;25.77;;;24.58;;
42296;SDS011;28985;47.456;19.016;2022-08-30T19:04:53;29.58;;;28.08;;
42296;SDS011;28985;47.456;19.016;2022-08-30T19:07:20;31.17;;;29.77;;
42296;SDS011;28985;47.456;19.016;2022-08-30T19:09:54;36.70;;;35.00;;
42296;SDS011;28985;47.456;19.016;2022-08-30T19:12:24;50.30;;;48.28;;
42296;SDS011;28985;47.456;19.016;2022-08-30T19:17:41;94.90;;;91.07;;
42296;SDS011;28985;47.456;19.016;2022-08-30T19:20:10;92.13;;;88.50;;
42296;SDS011;28985;47.456;19.016;2022-08-30T19:23:41;139.45;;;133.82;;
42296;SDS011;28985;47.456;19.016;2022-08-30T19:26:08;167.32;;;160.85;;
42296;SDS011;28985;47.456;19.016;2022-08-30T19:28:54;180.18;;;173.05;;
42296;SDS011;28985;47.456;19.016;2022-08-30T19:31:21;223.95;;;215.25;;
42296;SDS011;28985;47.456;19.016;2022-08-30T19:33:48;349.23;;;335.48;;
42296;SDS011;28985;47.456;19.016;2022-08-30T19:36:14;341.73;;;328.27;;
42296;SDS011;28985;47.456;19.016;2022-08-30T19:38:42;387.75;;;372.13;;
42296;SDS011;28985;47.456;19.016;2022-08-30T19:41:10;442.83;;;424.50;;
42296;SDS011;28985;47.456;19.016;2022-08-30T19:43:38;415.25;;;398.13;;
42296;SDS011;28985;47.456;19.016;2022-08-30T19:46:04;481.30;;;460.75;;
42296;SDS011;28985;47.456;19.016;2022-08-30T19:48:33;578.47;;;551.65;;
42296;SDS011;28985;47.456;19.016;2022-08-30T19:51:06;514.08;;;491.77;;
42296;SDS011;28985;47.456;19.016;2022-08-30T19:53:33;522.70;;;499.60;;
42296;SDS011;28985;47.456;19.016;2022-08-30T19:56:00;544.70;;;520.30;;
42296;SDS011;28985;47.456;19.016;2022-08-30T19:58:28;576.97;;;550.50;;
42296;SDS011;28985;47.456;19.016;2022-08-30T20:00:55;567.10;;;541.33;;
42296;SDS011;28985;47.456;19.016;2022-08-30T20:03:42;471.52;;;451.85;;
42296;SDS011;28985;47.456;19.016;2022-08-30T20:06:10;641.17;;;609.55;;
42296;SDS011;28985;47.456;19.016;2022-08-30T20:08:36;643.55;;;611.75;;
42296;SDS011;28985;47.456;19.016;2022-08-30T20:11:03;655.38;;;623.28;;
42296;SDS011;28985;47.456;19.016;2022-08-30T20:13:31;665.47;;;632.40;;
42296;SDS011;28985;47.456;19.016;2022-08-30T20:15:59;736.40;;;696.67;;
42296;SDS011;28985;47.456;19.016;2022-08-30T20:18:26;767.42;;;724.60;;
42296;SDS011;28985;47.456;19.016;2022-08-30T20:20:54;691.65;;;656.42;;
42296;SDS011;28985;47.456;19.016;2022-08-30T20:23:21;744.63;;;704.15;;
42296;SDS011;28985;47.456;19.016;2022-08-30T20:25:51;715.83;;;677.78;;
42296;SDS011;28985;47.456;19.016;2022-08-30T20:28:19;721.63;;;682.60;;
42296;SDS011;28985;47.456;19.016;2022-08-30T20:30:46;764.47;;;721.72;;
42296;SDS011;28985;47.456;19.016;2022-08-30T20:33:15;749.22;;;707.88;;
42296;SDS011;28985;47.456;19.016;2022-08-30T20:35:42;740.33;;;700.20;;
42296;SDS011;28985;47.456;19.016;2022-08-30T20:38:14;735.15;;;695.30;;
42296;SDS011;28985;47.456;19.016;2022-08-30T20:40:47;763.70;;;721.60;;
42296;SDS011;28985;47.456;19.016;2022-08-30T20:43:16;719.42;;;681.88;;
42296;SDS011;28985;47.456;19.016;2022-08-30T20:45:44;754.65;;;712.60;;
42296;SDS011;28985;47.456;19.016;2022-08-30T20:48:11;751.17;;;710.38;;
42296;SDS011;28985;47.456;19.016;2022-08-30T20:50:38;785.22;;;741.10;;
42296;SDS011;28985;47.456;19.016;2022-08-30T20:53:06;747.78;;;706.95;;
42296;SDS011;28985;47.456;19.016;2022-08-30T20:55:33;741.88;;;701.20;;
42296;SDS011;28985;47.456;19.016;2022-08-30T20:57:59;771.08;;;728.15;;
42296;SDS011;28985;47.456;19.016;2022-08-30T21:00:26;739.00;;;699.22;;
42296;SDS011;28985;47.456;19.016;2022-08-30T21:02:52;791.60;;;747.20;;
42296;SDS011;28985;47.456;19.016;2022-08-30T21:05:19;771.00;;;728.72;;
42296;SDS011;28985;47.456;19.016;2022-08-30T21:07:46;748.30;;;707.75;;
42296;SDS011;28985;47.456;19.016;2022-08-30T21:10:13;709.30;;;672.47;;
42296;SDS011;28985;47.456;19.016;2022-08-30T21:12:39;750.05;;;709.75;;
42296;SDS011;28985;47.456;19.016;2022-08-30T21:15:08;691.00;;;655.92;;
42296;SDS011;28985;47.456;19.016;2022-08-30T21:17:55;700.25;;;664.65;;
42296;SDS011;28985;47.456;19.016;2022-08-30T21:20:21;654.25;;;622.33;;
42296;SDS011;28985;47.456;19.016;2022-08-30T21:22:48;650.20;;;618.65;;
42296;SDS011;28985;47.456;19.016;2022-08-30T21:25:15;629.15;;;599.00;;
42296;SDS011;28985;47.456;19.016;2022-08-30T21:27:41;637.45;;;606.95;;
42296;SDS011;28985;47.456;19.016;2022-08-30T21:30:12;625.05;;;595.33;;
42296;SDS011;28985;47.456;19.016;2022-08-30T21:32:39;659.92;;;627.50;;
42296;SDS011;28985;47.456;19.016;2022-08-30T21:35:06;679.05;;;645.47;;
42296;SDS011;28985;47.456;19.016;2022-08-30T21:37:52;640.47;;;609.53;;
42296;SDS011;28985;47.456;19.016;2022-08-30T21:40:19;606.67;;;578.35;;
42296;SDS011;28985;47.456;19.016;2022-08-30T21:42:46;589.10;;;562.15;;
42296;SDS011;28985;47.456;19.016;2022-08-30T21:45:13;597.60;;;570.13;;
42296;SDS011;28985;47.456;19.016;2022-08-30T21:47:40;585.17;;;558.78;;
42296;SDS011;28985;47.456;19.016;2022-08-30T21:50:07;563.50;;;538.30;;
42296;SDS011;28985;47.456;19.016;2022-08-30T21:52:34;577.58;;;551.65;;
42296;SDS011;28985;47.456;19.016;2022-08-30T21:55:01;570.67;;;545.20;;
42296;SDS011;28985;47.456;19.016;2022-08-30T21:57:28;558.88;;;534.10;;
42296;SDS011;28985;47.456;19.016;2022-08-30T21:59:55;549.65;;;525.42;;
42296;SDS011;28985;47.456;19.016;2022-08-30T22:02:22;519.88;;;496.98;;
42296;SDS011;28985;47.456;19.016;2022-08-30T22:04:48;528.22;;;505.52;;
42296;SDS011;28985;47.456;19.016;2022-08-30T22:07:15;492.60;;;471.70;;
42296;SDS011;28985;47.456;19.016;2022-08-30T22:09:41;508.83;;;487.25;;
42296;SDS011;28985;47.456;19.016;2022-08-30T22:12:10;457.77;;;438.88;;
42296;SDS011;28985;47.456;19.016;2022-08-30T22:14:37;413.67;;;397.08;;
42296;SDS011;28985;47.456;19.016;2022-08-30T22:17:04;358.27;;;344.25;;
42296;SDS011;28985;47.456;19.016;2022-08-30T22:19:31;334.55;;;321.70;;
42296;SDS011;28985;47.456;19.016;2022-08-30T22:21:59;294.17;;;282.90;;
42296;SDS011;28985;47.456;19.016;2022-08-30T22:24:27;285.38;;;274.50;;
42296;SDS011;28985;47.456;19.016;2022-08-30T22:26:58;286.27;;;275.25;;
42296;SDS011;28985;47.456;19.016;2022-08-30T22:29:26;265.25;;;255.10;;
42296;SDS011;28985;47.456;19.016;2022-08-30T22:31:53;263.27;;;253.20;;
42296;SDS011;28985;47.456;19.016;2022-08-30T22:34:20;243.15;;;233.60;;
42296;SDS011;28985;47.456;19.016;2022-08-30T22:36:46;252.13;;;242.27;;
42296;SDS011;28985;47.456;19.016;2022-08-30T22:39:13;249.52;;;239.88;;
42296;SDS011;28985;47.456;19.016;2022-08-30T22:41:40;256.60;;;247.00;;
42296;SDS011;28985;47.456;19.016;2022-08-30T22:44:08;244.80;;;235.45;;
42296;SDS011;28985;47.456;19.016;2022-08-30T22:46:35;253.35;;;243.52;;
42296;SDS011;28985;47.456;19.016;2022-08-30T22:49:04;245.93;;;236.27;;
42296;SDS011;28985;47.456;19.016;2022-08-30T22:51:33;262.30;;;252.35;;
42296;SDS011;28985;47.456;19.016;2022-08-30T22:54:00;243.60;;;234.20;;
42296;SDS011;28985;47.456;19.016;2022-08-30T22:56:28;244.88;;;235.38;;
42296;SDS011;28985;47.456;19.016;2022-08-30T22:58:55;256.63;;;246.90;;
42296;SDS011;28985;47.456;19.016;2022-08-30T23:03:57;235.25;;;226.18;;
42296;SDS011;28985;47.456;19.016;2022-08-30T23:06:26;244.80;;;235.52;;
42296;SDS011;28985;47.456;19.016;2022-08-30T23:08:54;238.52;;;228.85;;
42296;SDS011;28985;47.456;19.016;2022-08-30T23:11:22;236.70;;;227.60;;
42296;SDS011;28985;47.456;19.016;2022-08-30T23:13:48;247.02;;;237.60;;
42296;SDS011;28985;47.456;19.016;2022-08-30T23:16:15;234.07;;;225.23;;
42296;SDS011;28985;47.456;19.016;2022-08-30T23:18:43;249.35;;;239.85;;
42296;SDS011;28985;47.456;19.016;2022-08-30T23:21:12;239.40;;;230.10;;
42296;SDS011;28985;47.456;19.016;2022-08-30T23:23:40;232.48;;;223.20;;
42296;SDS011;28985;47.456;19.016;2022-08-30T23:26:26;225.02;;;216.45;;
42296;SDS011;28985;47.456;19.016;2022-08-30T23:29:11;230.38;;;221.38;;
42296;SDS011;28985;47.456;19.016;2022-08-30T23:31:57;219.43;;;211.07;;
42296;SDS011;28985;47.456;19.016;2022-08-30T23:34:43;210.07;;;201.93;;
42296;SDS011;28985;47.456;19.016;2022-08-30T23:37:28;200.65;;;192.68;;
42296;SDS011;28985;47.456;19.016;2022-08-30T23:40:18;182.10;;;175.10;;
42296;SDS011;28985;47.456;19.016;2022-08-30T23:43:04;192.52;;;185.02;;
42296;SDS011;28985;47.456;19.016;2022-08-30T23:45:49;194.63;;;186.77;;
42296;SDS011;28985;47.456;19.016;2022-08-30T23:48:34;197.65;;;189.95;;
42296;SDS011;28985;47.456;19.016;2022-08-30T23:51:19;155.85;;;149.57;;
42296;SDS011;28985;47.456;19.016;2022-08-30T23:54:05;139.85;;;134.23;;
42296;SDS011;28985;47.456;19.016;2022-08-30T23:56:50;147.48;;;141.82;;
42296;SDS011;28985;47.456;19.016;2022-08-30T23:59:35;137.63;;;132.13;;
